Time;durP1;ratioP1;P1;durP2;ratioP2;P2;SDS_P1;SDS_P2;PMS_P1;PMS_P2;Temp;Humidity;BMP_temperature;BMP_pressure;BME280_temperature;BME280_humidity;BME280_pressure;Samples;Min_cycle;Max_cycle;Signal;HPM_P1;HPM_P2
2021/05/24 00:00:42;;;;;;;5.63;1.95;;;16.40;99.90;;;;;;5050953;28;20017;-78
2021/05/24 00:03:08;;;;;;;2.58;1.20;;;16.40;99.90;;;;;;5051642;28;20021;-79
2021/05/24 00:05:36;;;;;;;3.92;1.33;;;16.40;99.90;;;;;;5051396;28;20025;-78
2021/05/24 00:08:03;;;;;;;2.90;1.65;;;16.40;99.90;;;;;;5049931;28;20043;-78
2021/05/24 00:10:31;;;;;;;3.22;1.27;;;16.40;99.90;;;;;;5050678;28;20090;-76
2021/05/24 00:13:01;;;;;;;4.07;1.92;;;16.30;99.90;;;;;;5049788;28;20525;-79
2021/05/24 00:15:30;;;;;;;7.50;1.50;;;16.40;99.90;;;;;;5054160;28;20025;-79
2021/05/24 00:17:57;;;;;;;3.05;1.90;;;16.30;99.90;;;;;;5054176;28;20063;-77
2021/05/24 00:20:29;;;;;;;10.48;1.70;;;16.30;99.90;;;;;;5054174;28;20025;-79
2021/05/24 00:22:55;;;;;;;7.38;1.83;;;16.30;99.90;;;;;;5053931;28;20027;-79
2021/05/24 00:25:22;;;;;;;9.15;1.83;;;16.30;99.90;;;;;;5054180;28;20039;-79
2021/05/24 00:27:48;;;;;;;7.22;2.17;;;16.30;99.90;;;;;;5053064;28;20090;-78
2021/05/24 00:30:15;;;;;;;9.68;2.75;;;16.30;99.90;;;;;;5053556;28;20763;-79
2021/05/24 00:32:41;;;;;;;12.43;1.58;;;16.30;99.90;;;;;;5054162;28;20025;-79
2021/05/24 00:35:09;;;;;;;6.05;1.50;;;16.30;99.90;;;;;;5054307;28;20021;-79
2021/05/24 00:37:35;;;;;;;4.80;1.58;;;16.30;99.90;;;;;;5053643;28;20503;-79
2021/05/24 00:40:01;;;;;;;6.22;2.13;;;16.30;99.90;;;;;;5053861;28;20473;-78
2021/05/24 00:42:27;;;;;;;7.43;1.65;;;16.20;99.90;;;;;;5053233;28;20032;-79
2021/05/24 00:44:52;;;;;;;5.38;1.80;;;16.20;99.90;;;;;;5053162;28;20050;-80
2021/05/24 00:47:18;;;;;;;4.50;1.88;;;16.20;99.90;;;;;;5053131;28;20413;-79
2021/05/24 00:49:44;;;;;;;6.85;1.92;;;16.20;99.90;;;;;;5053570;28;20025;-79
2021/05/24 00:52:12;;;;;;;10.70;1.73;;;16.20;99.90;;;;;;5053080;28;20032;-79
2021/05/24 00:54:38;;;;;;;6.78;1.85;;;16.20;99.90;;;;;;5052747;28;20029;-79
2021/05/24 00:57:05;;;;;;;3.38;1.83;;;16.30;99.90;;;;;;5053832;28;20070;-78
2021/05/24 00:59:30;;;;;;;5.25;1.50;;;16.20;99.90;;;;;;5053655;28;20040;-79
2021/05/24 01:01:56;;;;;;;7.47;2.33;;;16.30;99.90;;;;;;5053770;28;20021;-79
2021/05/24 01:04:22;;;;;;;6.15;1.45;;;16.30;99.90;;;;;;5053376;28;20385;-79
2021/05/24 01:06:48;;;;;;;14.90;3.10;;;16.30;99.90;;;;;;5053197;28;20068;-78
2021/05/24 01:09:18;;;;;;;5.40;1.98;;;16.30;99.90;;;;;;5053507;28;20028;-79
2021/05/24 01:11:47;;;;;;;3.72;1.50;;;16.40;99.90;;;;;;5053100;28;20021;-78
2021/05/24 01:14:12;;;;;;;7.55;1.48;;;16.40;99.90;;;;;;5053267;28;20037;-79
2021/05/24 01:16:39;;;;;;;4.70;1.50;;;16.40;99.90;;;;;;5051561;28;20035;-79
2021/05/24 01:19:04;;;;;;;6.53;1.75;;;16.40;99.90;;;;;;5051691;28;20082;-78
2021/05/24 01:21:30;;;;;;;2.80;1.60;;;16.30;99.90;;;;;;5052491;28;20033;-79
2021/05/24 01:23:56;;;;;;;6.80;1.73;;;16.40;99.90;;;;;;5052570;28;20029;-79
2021/05/24 01:26:22;;;;;;;5.07;1.80;;;16.40;99.90;;;;;;5051790;28;20056;-79
2021/05/24 01:28:49;;;;;;;6.68;2.03;;;16.30;99.90;;;;;;5051892;28;20029;-79
2021/05/24 01:31:15;;;;;;;4.65;1.60;;;16.30;99.90;;;;;;5052279;28;20021;-76
2021/05/24 01:33:41;;;;;;;9.25;2.28;;;16.30;99.90;;;;;;5052902;28;20037;-80
2021/05/24 01:36:09;;;;;;;4.28;1.30;;;16.40;99.90;;;;;;5053362;28;20036;-78
2021/05/24 01:38:37;;;;;;;4.22;1.95;;;16.30;99.90;;;;;;5052326;28;20036;-79
2021/05/24 01:41:04;;;;;;;5.07;1.58;;;16.40;99.90;;;;;;5052329;28;20100;-79
2021/05/24 01:43:31;;;;;;;3.92;1.73;;;16.30;99.90;;;;;;5052359;28;20079;-79
2021/05/24 01:45:57;;;;;;;4.68;1.55;;;16.40;99.90;;;;;;5052414;28;20021;-78
2021/05/24 01:48:23;;;;;;;4.47;1.55;;;16.30;99.90;;;;;;5052154;28;20517;-79
2021/05/24 01:50:50;;;;;;;6.78;2.22;;;16.40;99.90;;;;;;5052550;28;20017;-76
2021/05/24 01:53:16;;;;;;;7.93;1.85;;;16.40;99.90;;;;;;5051805;28;20052;-79
2021/05/24 01:55:42;;;;;;;6.53;2.00;;;16.40;99.90;;;;;;5052313;28;20083;-79
2021/05/24 01:58:09;;;;;;;8.25;1.85;;;16.40;99.90;;;;;;5052437;28;20035;-79
2021/05/24 02:00:35;;;;;;;5.10;1.88;;;16.50;99.90;;;;;;5051056;28;20025;-76
2021/05/24 02:03:01;;;;;;;5.50;1.60;;;16.50;99.90;;;;;;5051815;28;20528;-79
2021/05/24 02:05:28;;;;;;;3.35;1.55;;;16.50;99.90;;;;;;5052280;28;20029;-79
2021/05/24 02:07:56;;;;;;;7.78;1.98;;;16.40;99.90;;;;;;5051924;28;20492;-79
2021/05/24 02:10:26;;;;;;;4.93;1.73;;;16.40;99.90;;;;;;5052082;28;20029;-79
2021/05/24 02:12:52;;;;;;;7.45;2.22;;;16.40;99.90;;;;;;5051760;28;20025;-79
2021/05/24 02:15:30;;;;;;;11.13;2.20;;;16.40;99.90;;;;;;5052299;28;20033;-79
2021/05/24 02:17:56;;;;;;;4.40;1.40;;;16.40;99.90;;;;;;5051762;28;20021;-79
2021/05/24 02:20:24;;;;;;;7.65;1.58;;;16.30;99.90;;;;;;5052217;28;20465;-79
2021/05/24 02:22:51;;;;;;;5.53;1.58;;;16.30;99.90;;;;;;5051318;28;20033;-79
2021/05/24 02:25:18;;;;;;;1.83;1.45;;;16.20;99.90;;;;;;5052007;28;20033;-78
2021/05/24 02:27:43;;;;;;;3.97;1.73;;;16.30;99.90;;;;;;5051385;28;20021;-78
2021/05/24 02:30:12;;;;;;;5.40;1.50;;;16.20;99.90;;;;;;5051626;28;20013;-79
2021/05/24 02:32:39;;;;;;;3.70;1.67;;;16.20;99.90;;;;;;5050225;28;20024;-79
2021/05/24 02:35:07;;;;;;;4.97;1.40;;;16.10;99.90;;;;;;5050845;28;20088;-78
2021/05/24 02:37:33;;;;;;;4.10;1.70;;;16.10;99.90;;;;;;5049415;28;20071;-79
2021/05/24 02:39:58;;;;;;;3.88;1.52;;;16.00;99.90;;;;;;5050734;28;20021;-79
2021/05/24 02:42:25;;;;;;;7.93;1.95;;;16.00;99.90;;;;;;5051195;28;20431;-79
2021/05/24 02:44:51;;;;;;;5.28;1.67;;;16.00;99.90;;;;;;5050633;28;20104;-78
2021/05/24 02:47:17;;;;;;;3.33;1.40;;;15.90;99.90;;;;;;5050624;28;20112;-79
2021/05/24 02:49:45;;;;;;;5.25;1.73;;;15.90;99.90;;;;;;5050966;28;20488;-79
2021/05/24 02:52:11;;;;;;;3.10;1.75;;;15.90;99.90;;;;;;5051264;28;20075;-79
2021/05/24 02:54:37;;;;;;;5.05;1.48;;;15.80;99.90;;;;;;5050681;28;20489;-79
2021/05/24 02:57:04;;;;;;;5.53;1.60;;;15.80;99.90;;;;;;5049754;28;20474;-79
2021/05/24 02:59:30;;;;;;;6.15;1.90;;;15.70;99.90;;;;;;5050896;28;20040;-79
2021/05/24 03:01:55;;;;;;;3.63;2.20;;;15.80;99.90;;;;;;5051556;28;20017;-79
2021/05/24 03:04:27;;;;;;;6.22;1.77;;;15.70;99.90;;;;;;5051394;28;20099;-79
2021/05/24 03:06:53;;;;;;;7.18;1.90;;;15.80;99.90;;;;;;5051038;28;20369;-79
2021/05/24 03:09:18;;;;;;;4.78;1.83;;;15.70;99.90;;;;;;5050839;28;20402;-78
2021/05/24 03:11:44;;;;;;;4.03;1.85;;;15.70;99.90;;;;;;5051393;28;20124;-79
2021/05/24 03:14:10;;;;;;;7.60;2.33;;;15.70;99.90;;;;;;5051125;28;20068;-80
2021/05/24 03:16:37;;;;;;;5.22;2.03;;;15.70;99.90;;;;;;5050998;28;20021;-77
2021/05/24 03:19:03;;;;;;;4.40;1.98;;;15.70;99.90;;;;;;5051026;28;20016;-78
2021/05/24 03:21:29;;;;;;;7.43;2.53;;;15.70;99.90;;;;;;5050990;28;20486;-78
2021/05/24 03:23:55;;;;;;;2.53;1.63;;;15.70;99.90;;;;;;5050928;28;20078;-78
2021/05/24 03:26:20;;;;;;;6.82;1.70;;;15.70;99.90;;;;;;5051069;28;20017;-79
2021/05/24 03:28:46;;;;;;;3.80;1.45;;;15.70;99.90;;;;;;5050580;28;20378;-78
2021/05/24 03:31:12;;;;;;;1.88;1.38;;;15.70;99.90;;;;;;5051000;28;20025;-78
2021/05/24 03:33:40;;;;;;;7.00;2.20;;;15.70;99.90;;;;;;5050372;28;20079;-78
2021/05/24 03:36:06;;;;;;;5.70;1.70;;;15.80;99.90;;;;;;5050219;28;20100;-78
2021/05/24 03:38:33;;;;;;;2.63;1.45;;;15.80;99.90;;;;;;5049772;28;20052;-77
2021/05/24 03:40:59;;;;;;;9.43;2.03;;;15.80;99.90;;;;;;5050204;28;20029;-78
2021/05/24 03:43:25;;;;;;;4.40;1.55;;;15.80;99.90;;;;;;5050990;28;20078;-79
2021/05/24 03:45:50;;;;;;;8.00;1.83;;;15.80;99.90;;;;;;5049079;28;20021;-78
2021/05/24 03:48:16;;;;;;;3.20;1.65;;;15.80;99.90;;;;;;5051111;28;20150;-78
2021/05/24 03:50:42;;;;;;;6.10;1.75;;;15.80;99.90;;;;;;5054555;28;20017;-78
2021/05/24 03:53:08;;;;;;;5.70;1.60;;;15.70;99.90;;;;;;5052888;28;20512;-79
2021/05/24 03:55:34;;;;;;;5.10;2.05;;;15.70;99.90;;;;;;5054064;28;20025;-78
2021/05/24 03:58:01;;;;;;;2.72;1.90;;;15.70;99.90;;;;;;5054584;28;20051;-78
2021/05/24 04:00:27;;;;;;;4.53;1.60;;;15.70;99.90;;;;;;5054695;28;20013;-79
2021/05/24 04:02:52;;;;;;;5.53;1.88;;;15.70;99.90;;;;;;5054055;28;20385;-79
2021/05/24 04:05:21;;;;;;;6.20;2.00;;;15.70;99.90;;;;;;5054296;28;20056;-79
2021/05/24 04:07:53;;;;;;;6.55;2.08;;;15.70;99.90;;;;;;5053934;28;20084;-79
2021/05/24 04:10:22;;;;;;;8.77;2.40;;;15.70;99.90;;;;;;5055126;28;20504;-79
2021/05/24 04:12:47;;;;;;;5.80;2.17;;;15.70;99.90;;;;;;5054209;28;20036;-78
2021/05/24 04:15:14;;;;;;;7.45;1.75;;;15.70;99.90;;;;;;5054132;28;20103;-79
2021/05/24 04:17:41;;;;;;;3.40;1.60;;;15.80;99.90;;;;;;5053762;28;20025;-79
2021/05/24 04:20:10;;;;;;;7.57;1.45;;;15.80;99.90;;;;;;5053969;28;20037;-78
2021/05/24 04:22:36;;;;;;;4.93;1.50;;;15.80;99.90;;;;;;5053894;28;20021;-78
2021/05/24 04:25:03;;;;;;;6.18;2.30;;;15.80;99.90;;;;;;5054060;28;20075;-80
2021/05/24 04:27:28;;;;;;;6.03;2.25;;;15.80;99.90;;;;;;5053961;28;20017;-78
2021/05/24 04:29:54;;;;;;;5.32;1.65;;;15.80;99.90;;;;;;5053879;28;20025;-79
2021/05/24 04:32:20;;;;;;;6.45;1.50;;;15.90;99.90;;;;;;5053723;28;20428;-79
2021/05/24 04:34:45;;;;;;;4.75;1.77;;;15.90;99.90;;;;;;5054028;28;20392;-77
2021/05/24 04:37:11;;;;;;;3.25;1.80;;;15.90;99.90;;;;;;5053639;28;20025;-79
2021/05/24 04:39:41;;;;;;;5.00;1.83;;;15.90;99.90;;;;;;5054329;28;20056;-77
2021/05/24 04:42:07;;;;;;;6.25;1.77;;;15.90;99.90;;;;;;5051778;28;20029;-77
2021/05/24 04:44:33;;;;;;;4.63;2.03;;;15.90;99.90;;;;;;5053759;28;20107;-78
2021/05/24 04:46:58;;;;;;;5.75;1.50;;;15.90;99.90;;;;;;5053836;28;20043;-79
2021/05/24 04:49:24;;;;;;;4.72;1.60;;;15.80;99.90;;;;;;5053195;28;20532;-79
2021/05/24 04:51:50;;;;;;;4.63;1.90;;;15.90;99.90;;;;;;5051063;28;20025;-79
2021/05/24 04:54:16;;;;;;;3.92;1.67;;;15.90;99.90;;;;;;5053930;28;20041;-79
2021/05/24 04:56:42;;;;;;;14.40;1.65;;;15.90;99.90;;;;;;5052221;28;20478;-80
2021/05/24 04:59:07;;;;;;;6.30;1.60;;;15.90;99.90;;;;;;5053101;28;20106;-80
2021/05/24 05:01:33;;;;;;;4.82;1.40;;;15.90;99.90;;;;;;5053377;28;20052;-77
2021/05/24 05:03:59;;;;;;;7.72;1.80;;;15.90;99.90;;;;;;5053278;28;20021;-75
2021/05/24 05:06:25;;;;;;;8.45;1.75;;;16.00;99.90;;;;;;5053180;28;20440;-79
2021/05/24 05:08:50;;;;;;;7.45;2.00;;;16.00;99.90;;;;;;5052442;28;20036;-80
2021/05/24 05:11:16;;;;;;;11.13;2.53;;;16.00;99.90;;;;;;5053261;28;20056;-77
2021/05/24 05:13:43;;;;;;;3.00;1.77;;;16.00;99.90;;;;;;5052980;28;20541;-80
2021/05/24 05:16:10;;;;;;;5.03;1.70;;;16.10;99.90;;;;;;5052881;28;20024;-78
2021/05/24 05:18:36;;;;;;;5.90;1.63;;;16.10;99.90;;;;;;5045202;28;20098;-80
2021/05/24 05:21:03;;;;;;;8.35;2.10;;;16.10;99.90;;;;;;5052494;28;20025;-80
2021/05/24 05:23:28;;;;;;;5.68;1.95;;;16.10;99.90;;;;;;5052116;28;20029;-81
2021/05/24 05:25:54;;;;;;;5.97;1.60;;;16.10;99.90;;;;;;5049869;28;20097;-78
2021/05/24 05:28:22;;;;;;;5.28;1.65;;;16.10;99.90;;;;;;5051449;28;20056;-79
2021/05/24 05:30:50;;;;;;;3.95;1.70;;;16.10;99.90;;;;;;5052620;28;20029;-80
2021/05/24 05:33:16;;;;;;;8.80;1.88;;;16.10;99.90;;;;;;5052274;28;20025;-76
2021/05/24 05:35:46;;;;;;;7.07;2.00;;;16.10;99.90;;;;;;5052736;28;20025;-75
2021/05/24 05:38:12;;;;;;;7.40;2.05;;;16.10;99.90;;;;;;5052463;28;20021;-76
2021/05/24 05:40:38;;;;;;;2.15;1.42;;;16.00;99.90;;;;;;5052484;28;20659;-79
2021/05/24 05:43:04;;;;;;;4.63;1.92;;;16.00;99.90;;;;;;5051889;28;20052;-81
2021/05/24 05:45:30;;;;;;;4.70;2.08;;;15.90;99.90;;;;;;5052696;28;20385;-79
2021/05/24 05:47:56;;;;;;;21.77;2.42;;;15.90;99.90;;;;;;5052567;28;20056;-82
2021/05/24 05:50:22;;;;;;;3.30;1.90;;;15.90;99.90;;;;;;5052688;28;20029;-80
2021/05/24 05:52:48;;;;;;;6.90;2.28;;;15.90;99.90;;;;;;5052470;28;20381;-81
2021/05/24 05:55:14;;;;;;;5.93;2.10;;;15.90;99.90;;;;;;5052231;28;20036;-82
2021/05/24 05:57:39;;;;;;;6.63;2.00;;;15.90;99.90;;;;;;5052412;28;20083;-81
2021/05/24 06:00:06;;;;;;;2.33;1.75;;;15.90;99.90;;;;;;5052277;28;20032;-81
2021/05/24 06:02:31;;;;;;;6.78;2.10;;;15.90;99.90;;;;;;5052798;28;20021;-81
2021/05/24 06:04:57;;;;;;;2.58;1.83;;;15.90;99.90;;;;;;5052373;28;20028;-82
2021/05/24 06:07:23;;;;;;;10.95;2.42;;;15.90;99.90;;;;;;5052157;28;20040;-82
2021/05/24 06:09:48;;;;;;;9.13;2.25;;;15.80;99.90;;;;;;5051993;28;20032;-81
2021/05/24 06:12:14;;;;;;;7.97;2.10;;;15.80;99.90;;;;;;5051647;28;20498;-82
2021/05/24 06:14:40;;;;;;;6.30;2.10;;;15.80;99.90;;;;;;5052229;28;20480;-81
2021/05/24 06:17:07;;;;;;;8.15;1.90;;;15.80;99.90;;;;;;5052305;28;20021;-81
2021/05/24 06:19:33;;;;;;;8.70;2.50;;;15.80;99.90;;;;;;5051992;28;20037;-83
2021/05/24 06:21:59;;;;;;;8.75;2.15;;;15.70;99.90;;;;;;5050282;28;20422;-76
2021/05/24 06:24:24;;;;;;;4.25;2.15;;;15.70;99.90;;;;;;5051951;28;20021;-82
2021/05/24 06:26:50;;;;;;;11.40;2.60;;;15.70;99.90;;;;;;5051718;28;20079;-82
2021/05/24 06:29:24;;;;;;;10.20;2.67;;;15.60;99.90;;;;;;5051722;28;20377;-81
2021/05/24 06:31:52;;;;;;;7.25;2.45;;;15.60;99.90;;;;;;5051185;28;20099;-80
2021/05/24 06:34:18;;;;;;;8.13;2.75;;;15.50;99.90;;;;;;5051989;28;20041;-81
2021/05/24 06:36:43;;;;;;;10.35;2.00;;;15.50;99.90;;;;;;5049254;28;20021;-82
2021/05/24 06:39:10;;;;;;;8.73;2.15;;;15.40;99.90;;;;;;5050813;28;20021;-81
2021/05/24 06:41:35;;;;;;;4.47;2.10;;;15.30;99.90;;;;;;5051061;28;20084;-82
2021/05/24 06:44:01;;;;;;;7.63;3.00;;;15.30;99.90;;;;;;5052137;28;20143;-81
2021/05/24 06:46:27;;;;;;;5.47;2.40;;;15.30;99.90;;;;;;5051985;28;20031;-83
2021/05/24 06:48:53;;;;;;;3.45;2.40;;;15.40;99.90;;;;;;5051374;28;20044;-86
2021/05/24 06:51:19;;;;;;;7.65;2.40;;;15.40;99.90;;;;;;5052336;28;20075;-86
2021/05/24 06:53:45;;;;;;;7.50;2.38;;;15.40;99.90;;;;;;5048095;28;20025;-87
2021/05/24 06:56:11;;;;;;;4.68;2.17;;;15.40;99.90;;;;;;5042616;28;20017;-89
2021/05/24 06:58:37;;;;;;;3.58;2.28;;;15.40;99.90;;;;;;5051927;28;20067;-87
2021/05/24 07:01:03;;;;;;;5.57;2.95;;;15.40;99.90;;;;;;5049582;28;20026;-88
2021/05/24 07:03:30;;;;;;;7.07;2.13;;;15.60;99.90;;;;;;5051524;28;20028;-86
2021/05/24 07:05:56;;;;;;;6.65;2.38;;;15.70;99.90;;;;;;5052480;28;20046;-86
2021/05/24 07:08:23;;;;;;;4.07;2.13;;;15.70;99.90;;;;;;5051413;28;20025;-86
2021/05/24 07:10:49;;;;;;;7.85;1.95;;;15.70;99.90;;;;;;5052556;28;20116;-87
2021/05/24 07:13:15;;;;;;;9.73;2.30;;;15.70;99.90;;;;;;5046148;28;20029;-88
2021/05/24 07:15:41;;;;;;;4.57;2.08;;;15.70;99.90;;;;;;5043392;28;20013;-88
2021/05/24 07:18:07;;;;;;;5.22;2.05;;;15.70;99.90;;;;;;5043323;28;20032;-87
2021/05/24 07:20:33;;;;;;;5.38;2.03;;;15.70;99.90;;;;;;5038716;28;20120;-87
2021/05/24 07:22:58;;;;;;;9.90;1.98;;;15.70;99.90;;;;;;5047382;28;20127;-88
2021/05/24 07:25:24;;;;;;;7.60;2.22;;;15.70;99.90;;;;;;5042123;28;20037;-88
2021/05/24 07:27:50;;;;;;;4.00;1.73;;;15.70;99.90;;;;;;5044196;28;20385;-85
2021/05/24 07:30:16;;;;;;;9.50;2.38;;;15.70;99.90;;;;;;5051087;28;20105;-86
2021/05/24 07:32:42;;;;;;;7.03;2.33;;;15.60;99.90;;;;;;5049748;28;20075;-84
2021/05/24 07:35:09;;;;;;;3.08;1.73;;;15.60;99.90;;;;;;5041531;28;20088;-86
2021/05/24 07:37:35;;;;;;;5.60;2.10;;;15.50;99.90;;;;;;5043620;28;20051;-85
2021/05/24 07:40:01;;;;;;;12.32;2.28;;;15.40;99.90;;;;;;5038890;28;20359;-86
2021/05/24 07:42:27;;;;;;;7.50;2.55;;;15.30;99.90;;;;;;5040082;28;20024;-86
2021/05/24 07:44:53;;;;;;;7.20;2.17;;;15.20;99.90;;;;;;5049951;28;20017;-87
2021/05/24 07:47:18;;;;;;;4.43;2.08;;;15.10;99.90;;;;;;5044349;28;20033;-88
2021/05/24 07:49:46;;;;;;;7.65;1.98;;;15.00;99.90;;;;;;5040966;28;20028;-85
2021/05/24 07:52:12;;;;;;;6.07;2.75;;;15.00;99.90;;;;;;5046005;28;20124;-87
2021/05/24 07:54:38;;;;;;;3.33;2.15;;;15.00;99.90;;;;;;5045316;28;20094;-88
2021/05/24 07:57:04;;;;;;;9.00;2.85;;;14.80;99.90;;;;;;5045536;28;20044;-87
2021/05/24 07:59:30;;;;;;;4.63;2.45;;;14.80;99.90;;;;;;5042493;28;20060;-87
2021/05/24 08:01:55;;;;;;;10.43;3.05;;;14.80;99.90;;;;;;5045522;28;20023;-82
2021/05/24 08:04:21;;;;;;;6.20;2.40;;;14.70;99.90;;;;;;5048195;28;20115;-85
2021/05/24 08:06:47;;;;;;;8.43;3.00;;;14.60;99.90;;;;;;5045016;28;20354;-81
2021/05/24 08:09:13;;;;;;;11.00;4.20;;;14.50;99.90;;;;;;5044458;28;20470;-84
2021/05/24 08:11:38;;;;;;;7.28;3.10;;;14.40;99.90;;;;;;5037030;28;20026;-84
2021/05/24 08:14:04;;;;;;;6.65;3.35;;;14.30;99.90;;;;;;5040526;28;20057;-83
2021/05/24 08:16:30;;;;;;;10.10;3.85;;;14.30;99.90;;;;;;5042744;28;20491;-85
2021/05/24 08:18:56;;;;;;;10.43;4.30;;;14.20;99.90;;;;;;5041652;28;20028;-82
2021/05/24 08:21:22;;;;;;;13.73;4.57;;;14.20;99.90;;;;;;5041053;28;20030;-84
2021/05/24 08:23:48;;;;;;;10.38;5.07;;;14.10;99.90;;;;;;5050012;28;20025;-83
2021/05/24 08:26:13;;;;;;;15.55;4.32;;;14.10;99.90;;;;;;5050010;28;20488;-83
2021/05/24 08:28:40;;;;;;;7.78;3.70;;;14.00;99.90;;;;;;5045817;28;20044;-82
2021/05/24 08:31:06;;;;;;;7.00;3.50;;;14.00;99.90;;;;;;5043911;28;20100;-83
2021/05/24 08:33:32;;;;;;;6.68;3.63;;;14.00;99.90;;;;;;5048345;28;20025;-84
2021/05/24 08:35:58;;;;;;;10.48;3.53;;;14.00;99.90;;;;;;5052737;28;20036;-84
2021/05/24 08:38:24;;;;;;;8.80;3.38;;;14.00;99.90;;;;;;5052354;28;20032;-82
2021/05/24 08:40:51;;;;;;;15.82;4.53;;;14.10;99.90;;;;;;5052420;28;20457;-82
2021/05/24 08:43:17;;;;;;;9.00;3.58;;;14.30;99.90;;;;;;5051996;28;20028;-82
2021/05/24 08:45:44;;;;;;;9.65;2.22;;;14.40;99.90;;;;;;5051415;28;20085;-80
2021/05/24 08:48:11;;;;;;;5.45;2.67;;;14.60;99.90;;;;;;5036613;28;20041;-83
2021/05/24 08:50:38;;;;;;;9.88;3.15;;;14.60;99.90;;;;;;5044795;28;20029;-84
2021/05/24 08:53:06;;;;;;;9.90;2.92;;;14.70;99.90;;;;;;5045650;28;20098;-85
2021/05/24 08:55:32;;;;;;;7.75;2.97;;;14.70;99.90;;;;;;5045185;28;20033;-84
2021/05/24 08:57:58;;;;;;;7.60;2.63;;;14.80;99.90;;;;;;5051325;28;20071;-83
2021/05/24 09:00:23;;;;;;;3.45;2.45;;;14.80;99.90;;;;;;5048172;28;20088;-82
2021/05/24 09:02:52;;;;;;;10.43;3.05;;;14.90;99.90;;;;;;5048266;28;20110;-83
2021/05/24 09:05:18;;;;;;;11.85;2.75;;;15.00;99.90;;;;;;5053257;28;20025;-83
2021/05/24 09:07:53;;;;;;;10.07;2.83;;;15.10;99.90;;;;;;5045913;28;20021;-82
2021/05/24 09:10:21;;;;;;;5.75;2.92;;;15.10;99.90;;;;;;5041928;28;20179;-83
2021/05/24 09:12:47;;;;;;;4.72;2.30;;;15.10;99.90;;;;;;5044768;28;20078;-81
2021/05/24 09:15:15;;;;;;;6.18;3.17;;;15.10;99.90;;;;;;5043323;28;20115;-81
2021/05/24 09:17:45;;;;;;;8.50;2.70;;;14.90;99.90;;;;;;5049254;28;20025;-80
2021/05/24 09:20:20;;;;;;;6.97;2.70;;;14.80;99.90;;;;;;5050117;28;20583;-83
2021/05/24 09:23:10;;;;;;;9.02;3.10;;;14.80;99.90;;;;;;5042556;28;20035;-81
2021/05/24 09:25:51;;;;;;;5.82;2.58;;;14.70;99.90;;;;;;5036378;28;20435;-82
2021/05/24 09:28:46;;;;;;;5.38;2.50;;;14.60;99.90;;;;;;5048931;28;20017;-81
2021/05/24 09:31:31;;;;;;;10.70;3.05;;;14.70;99.90;;;;;;5048316;28;20481;-82
2021/05/24 09:34:00;;;;;;;8.85;3.00;;;14.70;99.90;;;;;;5043926;28;20033;-80
2021/05/24 09:36:27;;;;;;;7.65;3.10;;;14.80;99.90;;;;;;5051945;28;20025;-80
2021/05/24 09:39:13;;;;;;;6.82;3.03;;;14.90;99.90;;;;;;5048433;28;20025;-84
2021/05/24 09:41:46;;;;;;;10.57;2.53;;;15.00;99.90;;;;;;5049173;28;20493;-81
2021/05/24 09:44:26;;;;;;;7.13;2.88;;;15.10;99.90;;;;;;5051747;28;20507;-79
2021/05/24 09:46:52;;;;;;;8.73;2.17;;;15.20;99.90;;;;;;5050967;28;20033;-81
2021/05/24 09:49:29;;;;;;;3.95;2.10;;;15.20;99.90;;;;;;5052067;28;20053;-82
2021/05/24 09:51:56;;;;;;;6.70;1.98;;;15.30;99.90;;;;;;5047107;28;20510;-80
2021/05/24 09:54:23;;;;;;;6.75;2.15;;;15.30;99.90;;;;;;5041911;28;20125;-80
2021/05/24 09:56:49;;;;;;;8.35;2.00;;;15.40;99.90;;;;;;5044873;28;20025;-81
2021/05/24 09:59:21;;;;;;;4.35;1.90;;;15.50;99.90;;;;;;5040786;28;20029;-81
2021/05/24 10:01:56;;;;;;;12.02;2.60;;;15.50;99.90;;;;;;5040241;28;20033;-80
2021/05/24 10:04:22;;;;;;;6.18;2.50;;;15.60;99.90;;;;;;5051744;28;20040;-79
2021/05/24 10:06:48;;;;;;;3.97;1.90;;;15.60;99.90;;;;;;5049999;28;20365;-79
2021/05/24 10:09:16;;;;;;;5.95;1.80;;;15.60;99.90;;;;;;5049942;28;20021;-81
2021/05/24 10:11:45;;;;;;;2.83;2.00;;;15.50;99.90;;;;;;5049235;28;20025;-81
2021/05/24 10:14:15;;;;;;;3.72;2.00;;;15.50;99.90;;;;;;5051836;28;20036;-80
2021/05/24 10:16:45;;;;;;;5.22;1.80;;;15.50;99.90;;;;;;5052049;28;20059;-78
2021/05/24 10:19:12;;;;;;;6.10;2.00;;;15.50;99.90;;;;;;5051629;28;20477;-82
2021/05/24 10:21:39;;;;;;;5.07;2.35;;;15.40;99.90;;;;;;5051772;28;20079;-79
2021/05/24 10:24:06;;;;;;;2.75;1.60;;;15.30;99.90;;;;;;5051349;28;20431;-81
2021/05/24 10:26:33;;;;;;;6.35;1.95;;;15.30;99.90;;;;;;5047064;28;20033;-78
2021/05/24 10:29:01;;;;;;;3.58;1.85;;;15.30;99.90;;;;;;5050327;28;20024;-74
2021/05/24 10:31:29;;;;;;;6.82;2.20;;;15.40;99.90;;;;;;5051097;28;20033;-77
2021/05/24 10:34:20;;;;;;;9.52;2.13;;;15.30;99.90;;;;;;5050102;28;20032;-78
2021/05/24 10:37:05;;;;;;;7.45;1.77;;;15.40;99.90;;;;;;5046428;28;20501;-79
2021/05/24 10:39:44;;;;;;;5.07;1.70;;;15.30;99.90;;;;;;5048018;28;20029;-76
2021/05/24 10:42:12;;;;;;;4.03;2.22;;;15.20;99.90;;;;;;5049411;28;20078;-76
2021/05/24 10:44:40;;;;;;;9.95;1.90;;;15.10;99.90;;;;;;5051213;28;20025;-73
2021/05/24 10:47:20;;;;;;;4.28;1.95;;;15.00;99.90;;;;;;5051183;28;20029;-77
2021/05/24 10:50:14;;;;;;;5.90;2.28;;;15.00;99.90;;;;;;5050161;28;20661;-77
2021/05/24 10:52:41;;;;;;;6.72;2.50;;;15.10;99.90;;;;;;5041128;28;20158;-76
2021/05/24 10:55:25;;;;;;;6.00;1.85;;;15.20;99.90;;;;;;5049534;28;20532;-76
2021/05/24 10:58:02;;;;;;;7.32;1.63;;;15.30;99.90;;;;;;5047139;28;20028;-76
2021/05/24 11:00:47;;;;;;;2.45;1.73;;;15.50;99.90;;;;;;5040173;28;20029;-76
2021/05/24 11:03:13;;;;;;;4.10;2.10;;;15.60;99.90;;;;;;5038162;28;20021;-76
2021/05/24 11:05:38;;;;;;;3.33;2.30;;;15.70;99.90;;;;;;5046586;28;20033;-76
2021/05/24 11:08:07;;;;;;;7.55;2.35;;;15.80;99.90;;;;;;5050158;28;20048;-77
2021/05/24 11:10:39;;;;;;;2.63;2.05;;;15.90;99.90;;;;;;5049280;28;20021;-78
2021/05/24 11:13:11;;;;;;;4.78;2.22;;;15.90;99.90;;;;;;5049488;28;20037;-76
2021/05/24 11:15:39;;;;;;;4.05;2.08;;;15.80;99.90;;;;;;5050866;28;20092;-74
2021/05/24 11:18:05;;;;;;;6.85;2.10;;;15.80;99.90;;;;;;5045174;28;20175;-81
2021/05/24 11:21:15;;;;;;;6.47;2.53;;;15.70;99.90;;;;;;5043928;28;20477;-82
2021/05/24 11:26:28;;;;;;;7.93;3.53;;;15.70;99.90;;;;;;5048017;28;20109;-79
2021/05/24 11:29:17;;;;;;;7.50;2.65;;;15.70;99.90;;;;;;5041656;28;20149;-83
2021/05/24 11:31:52;;;;;;;6.20;2.78;;;15.70;99.90;;;;;;5047102;28;20052;-81
2021/05/24 11:34:36;;;;;;;7.63;2.83;;;15.70;99.90;;;;;;5041925;28;20496;-81
2021/05/24 11:37:07;;;;;;;3.45;2.22;;;15.70;99.90;;;;;;5050048;28;20118;-78
2021/05/24 11:39:46;;;;;;;7.63;2.60;;;15.60;99.90;;;;;;5050502;28;20017;-79
2021/05/24 11:42:27;;;;;;;3.83;2.25;;;15.60;99.90;;;;;;5044862;28;20033;-79
2021/05/24 11:44:56;;;;;;;4.65;2.47;;;15.70;99.90;;;;;;5047661;28;20025;-80
2021/05/24 11:47:24;;;;;;;8.68;2.95;;;15.70;99.90;;;;;;5054236;22;20053;-78
2021/05/24 11:50:09;;;;;;;15.40;2.95;;;15.80;99.90;;;;;;5022746;28;20033;-76
2021/05/24 11:52:37;;;;;;;9.90;3.50;;;15.90;99.90;;;;;;5020069;28;20026;-76
2021/05/24 11:55:11;;;;;;;12.48;3.42;;;15.90;99.90;;;;;;5009126;28;20109;-79
2021/05/24 11:57:42;;;;;;;6.65;3.28;;;16.00;99.90;;;;;;5002794;28;20045;-79
2021/05/24 12:00:10;;;;;;;10.65;3.85;;;16.00;99.90;;;;;;5014886;28;20026;-76
2021/05/24 12:02:36;;;;;;;8.23;2.90;;;16.00;99.90;;;;;;5013300;28;20390;-77
2021/05/24 12:05:02;;;;;;;6.78;3.55;;;16.10;99.90;;;;;;5017020;28;20026;-78
2021/05/24 12:07:28;;;;;;;11.18;3.30;;;16.10;99.90;;;;;;5020531;28;20508;-77
2021/05/24 12:09:56;;;;;;;8.45;2.83;;;16.10;99.90;;;;;;5024750;28;20029;-78
2021/05/24 12:12:24;;;;;;;7.40;3.20;;;16.10;99.90;;;;;;5005624;28;20382;-77
2021/05/24 12:14:58;;;;;;;9.85;3.08;;;16.10;99.90;;;;;;5012780;28;20025;-78
2021/05/24 12:17:26;;;;;;;11.77;2.80;;;16.20;99.90;;;;;;5019612;28;20494;-76
2021/05/24 12:19:53;;;;;;;8.95;2.90;;;16.20;99.90;;;;;;5013776;28;20116;-76
2021/05/24 12:22:25;;;;;;;8.40;2.70;;;16.20;99.90;;;;;;5027597;28;20121;-77
2021/05/24 12:24:52;;;;;;;9.20;3.15;;;16.10;99.90;;;;;;5033071;28;20042;-77
2021/05/24 12:27:21;;;;;;;10.07;3.28;;;16.10;99.90;;;;;;5027946;28;20045;-77
2021/05/24 12:30:14;;;;;;;6.95;3.88;;;16.10;99.90;;;;;;5011423;28;20038;-77
2021/05/24 12:32:43;;;;;;;17.23;4.13;;;16.10;99.90;;;;;;5010828;28;20129;-77
2021/05/24 12:35:11;;;;;;;7.35;3.78;;;16.20;99.90;;;;;;5006531;28;20068;-76
2021/05/24 12:37:39;;;;;;;11.55;4.55;;;16.30;99.90;;;;;;5015894;28;20022;-76
2021/05/24 12:40:10;;;;;;;8.43;3.90;;;16.40;99.90;;;;;;5024049;28;20033;-78
2021/05/24 12:42:40;;;;;;;12.07;5.20;;;16.50;99.90;;;;;;5021908;28;20026;-76
2021/05/24 12:45:09;;;;;;;18.27;5.25;;;16.50;99.90;;;;;;5027570;28;20029;-76
2021/05/24 12:47:35;;;;;;;8.77;4.40;;;16.60;99.90;;;;;;5030054;28;20046;-77
2021/05/24 12:50:11;;;;;;;16.05;4.38;;;16.60;99.90;;;;;;5028907;28;20040;-77
2021/05/24 12:52:36;;;;;;;15.63;4.82;;;16.60;99.90;;;;;;5007259;28;20113;-77